createdAt,value
2019-06-26T00:08:18.265Z,3.8
2019-06-26T00:25:12.428Z,3.8
2019-06-26T00:42:06.399Z,3.8
2019-06-26T00:59:00.121Z,3.8
2019-06-26T01:15:53.560Z,3.8
2019-06-26T01:32:46.797Z,3.8
2019-06-26T01:49:39.819Z,3.8
2019-06-26T02:06:32.655Z,3.8
2019-06-26T02:23:25.121Z,3.8
2019-06-26T02:40:17.491Z,3.7
2019-06-26T02:57:09.662Z,3.7
2019-06-26T03:14:01.766Z,3.7
2019-06-26T03:30:53.547Z,3.7
2019-06-26T03:47:44.876Z,3.7
2019-06-26T04:04:36.780Z,3.7
2019-06-26T04:21:28.764Z,3.8
2019-06-26T04:38:20.814Z,3.8
2019-06-26T04:55:13.108Z,3.8
2019-06-26T05:08:42.909Z,3.9
2019-06-26T05:25:35.572Z,3.9
2019-06-26T05:42:28.412Z,4.0
2019-06-26T05:59:21.283Z,4.0
2019-06-26T06:12:51.732Z,4.1
2019-06-26T06:29:45.253Z,4.2
2019-06-26T06:46:39.766Z,4.3
2019-06-26T07:03:34.862Z,4.4
2019-06-26T07:20:30.253Z,4.4
2019-06-26T07:37:26.214Z,4.5
2019-06-26T07:54:22.513Z,4.6
2019-06-26T08:11:18.859Z,4.6
2019-06-26T08:28:15.735Z,4.6
2019-06-26T08:45:13.126Z,4.5
2019-06-26T09:02:10.539Z,4.5
2019-06-26T09:19:08.328Z,4.4
2019-06-26T09:36:07.137Z,4.4
2019-06-26T09:53:05.498Z,4.4
2019-06-26T10:10:02.029Z,4.4
2019-06-26T10:26:59.886Z,4.4
2019-06-26T10:43:57.615Z,4.5
2019-06-26T11:00:55.299Z,4.4
2019-06-26T11:17:53.025Z,4.4
2019-06-26T11:34:50.749Z,4.4
2019-06-26T11:51:48.355Z,4.5
2019-06-26T12:08:46.249Z,4.4
2019-06-26T12:25:44.485Z,4.4
2019-06-26T12:35:55.454Z,4.3
2019-06-26T12:52:53.954Z,4.2
2019-06-26T13:09:52.370Z,4.1
2019-06-26T13:26:54.324Z,4.2
2019-06-26T13:43:49.182Z,4.1
2019-06-26T13:47:12.811Z,4.2
2019-06-26T14:04:11.191Z,4.2
2019-06-26T14:21:24.609Z,4.2
2019-06-26T14:38:07.680Z,4.2
2019-06-26T14:55:05.845Z,4.2
2019-06-26T15:06:58.530Z,4.3
2019-06-26T15:23:56.574Z,4.4
2019-06-26T15:40:54.027Z,4.5
2019-06-26T15:57:51.470Z,4.5
2019-06-26T16:14:48.975Z,4.5
2019-06-26T16:31:46.367Z,4.5
2019-06-26T16:48:43.975Z,4.4
2019-06-26T17:05:41.695Z,4.3
2019-06-26T17:22:39.632Z,4.4
2019-06-26T17:39:37.574Z,4.2
2019-06-26T17:49:47.753Z,4.4
2019-06-26T17:53:21.104Z,4.6
2019-06-26T17:58:16.327Z,4.5
2019-06-26T18:05:02.161Z,4.4
2019-06-26T18:13:29.665Z,4.2
2019-06-26T18:20:14.889Z,4.1
2019-06-26T18:37:07.633Z,4.1
2019-06-26T18:54:01.125Z,4.1
2019-06-26T19:04:06.787Z,4.1
2019-06-26T19:20:57.771Z,4.0
2019-06-26T19:34:26.200Z,4.0
2019-06-26T19:47:54.008Z,4.0
2019-06-26T20:04:43.353Z,4.0
2019-06-26T20:21:32.161Z,4.0
2019-06-26T20:31:36.806Z,4.0
2019-06-26T20:48:24.585Z,4.0
2019-06-26T21:21:58.610Z,3.9
2019-06-26T21:35:23.818Z,3.9
2019-06-26T21:52:10.087Z,3.9
2019-06-26T22:02:13.480Z,3.9
2019-06-26T22:15:39.429Z,3.9
2019-06-26T22:32:22.202Z,3.9
2019-06-26T22:49:06.590Z,3.9
2019-06-26T23:05:50.992Z,3.9
2019-06-26T23:22:35.012Z,3.8
2019-06-26T23:39:19.024Z,3.8
2019-06-26T23:56:02.548Z,3.8
